Time;durP1;ratioP1;P1;durP2;ratioP2;P2;SDS_P1;SDS_P2;PMS_P1;PMS_P2;Temp;Humidity;BMP_temperature;BMP_pressure;BME280_temperature;BME280_humidity;BME280_pressure;Samples;Min_cycle;Max_cycle;Signal;HPM_P1;HPM_P2
2022/12/14 00:00:02;;;;;;;46.90;24.35;;;;;;;;;;5015226;28;20128;-63
2022/12/14 00:02:28;;;;;;;49.28;25.08;;;;;;;;;;5017194;28;20120;-63
2022/12/14 00:04:54;;;;;;;46.20;23.98;;;;;;;;;;5016949;28;20037;-63
2022/12/14 00:07:20;;;;;;;46.63;24.58;;;;;;;;;;5017055;28;20120;-63
2022/12/14 00:09:46;;;;;;;51.30;24.05;;;;;;;;;;5025678;28;20080;-63
2022/12/14 00:12:12;;;;;;;50.38;25.42;;;;;;;;;;5032515;28;20050;-63
2022/12/14 00:14:38;;;;;;;46.10;23.20;;;;;;;;;;5016532;28;20085;-63
2022/12/14 00:17:04;;;;;;;50.13;24.33;;;;;;;;;;5016631;28;20125;-63
2022/12/14 00:19:31;;;;;;;50.88;25.13;;;;;;;;;;5017112;28;20535;-63
2022/12/14 00:21:57;;;;;;;49.88;24.42;;;;;;;;;;5016676;28;20046;-63
2022/12/14 00:24:23;;;;;;;53.65;24.85;;;;;;;;;;5016817;28;20049;-63
2022/12/14 00:26:49;;;;;;;50.78;24.48;;;;;;;;;;5032705;28;20375;-63
2022/12/14 00:29:15;;;;;;;44.90;24.15;;;;;;;;;;5024450;28;20045;-63
2022/12/14 00:31:41;;;;;;;54.00;25.23;;;;;;;;;;5015402;28;20045;-63
2022/12/14 00:34:07;;;;;;;44.45;23.55;;;;;;;;;;5016748;28;20038;-63
2022/12/14 00:36:35;;;;;;;52.50;23.77;;;;;;;;;;5016431;28;20045;-63
2022/12/14 00:39:01;;;;;;;54.42;24.35;;;;;;;;;;5016671;28;20038;-63
2022/12/14 00:41:27;;;;;;;44.40;22.77;;;;;;;;;;5016525;28;20061;-63
2022/12/14 00:43:53;;;;;;;47.33;23.10;;;;;;;;;;5016910;28;20045;-63
2022/12/14 00:46:19;;;;;;;47.08;23.42;;;;;;;;;;5015160;28;20061;-63
2022/12/14 00:48:46;;;;;;;46.05;24.23;;;;;;;;;;5016409;28;20046;-63
2022/12/14 00:51:13;;;;;;;47.72;22.83;;;;;;;;;;5016872;28;20045;-63
2022/12/14 00:53:39;;;;;;;46.58;23.27;;;;;;;;;;5016194;28;20069;-63
2022/12/14 00:56:07;;;;;;;49.75;24.15;;;;;;;;;;5015035;28;20049;-63
2022/12/14 00:58:33;;;;;;;48.80;23.35;;;;;;;;;;5016054;28;20465;-63
2022/12/14 01:01:04;;;;;;;46.85;22.50;;;;;;;;;;5012942;28;20038;-63
2022/12/14 01:03:30;;;;;;;47.53;22.17;;;;;;;;;;5013249;28;20136;-63
2022/12/14 01:05:56;;;;;;;48.13;21.90;;;;;;;;;;5013502;28;20049;-63
2022/12/14 01:08:22;;;;;;;49.85;23.92;;;;;;;;;;5012798;28;20042;-63
2022/12/14 01:10:48;;;;;;;44.95;22.63;;;;;;;;;;5030599;28;20399;-63
2022/12/14 01:13:14;;;;;;;50.42;22.75;;;;;;;;;;5021822;28;20057;-63
2022/12/14 01:15:40;;;;;;;48.10;23.55;;;;;;;;;;5012914;28;20042;-63
2022/12/14 01:18:06;;;;;;;45.60;22.77;;;;;;;;;;5013170;28;20416;-63
2022/12/14 01:20:32;;;;;;;53.53;24.02;;;;;;;;;;5011732;28;20045;-63
2022/12/14 01:22:59;;;;;;;48.58;21.92;;;;;;;;;;5012460;28;20038;-63
2022/12/14 01:25:25;;;;;;;45.95;21.77;;;;;;;;;;5017232;28;20048;-63
2022/12/14 01:27:51;;;;;;;47.90;21.80;;;;;;;;;;5032924;28;20060;-63
2022/12/14 01:30:18;;;;;;;45.17;21.20;;;;;;;;;;5013630;28;20105;-63
2022/12/14 01:32:44;;;;;;;47.70;21.83;;;;;;;;;;5012783;28;20067;-63
2022/12/14 01:35:10;;;;;;;47.22;22.80;;;;;;;;;;5013142;28;20049;-63
2022/12/14 01:37:36;;;;;;;45.85;23.00;;;;;;;;;;5010864;28;20157;-63
2022/12/14 01:40:02;;;;;;;46.33;22.55;;;;;;;;;;5011333;28;20037;-63
2022/12/14 01:42:28;;;;;;;50.60;23.08;;;;;;;;;;4993014;28;20733;-63
2022/12/14 01:44:55;;;;;;;46.47;22.63;;;;;;;;;;4999892;28;20508;-63
2022/12/14 01:47:30;;;;;;;51.78;22.30;;;;;;;;;;5012766;28;20453;-63
2022/12/14 01:50:09;;;;;;;48.88;22.67;;;;;;;;;;5011475;28;20695;-63
2022/12/14 01:52:43;;;;;;;42.83;20.80;;;;;;;;;;5012052;28;20111;-63
2022/12/14 01:55:11;;;;;;;50.55;23.52;;;;;;;;;;5011412;28;20056;-63
2022/12/14 01:57:40;;;;;;;50.97;22.58;;;;;;;;;;5010941;28;20389;-63
2022/12/14 02:00:08;;;;;;;49.90;22.25;;;;;;;;;;5012092;28;20053;-63
2022/12/14 02:02:36;;;;;;;48.25;22.00;;;;;;;;;;4992638;28;20045;-63
2022/12/14 02:05:02;;;;;;;49.28;22.27;;;;;;;;;;4999864;28;20088;-63
2022/12/14 02:07:29;;;;;;;43.10;20.88;;;;;;;;;;5010554;28;20049;-63
2022/12/14 02:09:56;;;;;;;45.00;22.17;;;;;;;;;;5020453;28;20051;-63
2022/12/14 02:12:28;;;;;;;45.33;22.95;;;;;;;;;;5029524;28;20043;-63
2022/12/14 02:14:55;;;;;;;49.05;21.02;;;;;;;;;;5011536;28;20057;-63
2022/12/14 02:17:21;;;;;;;47.63;22.98;;;;;;;;;;5012132;28;20038;-63
2022/12/14 02:19:49;;;;;;;48.38;22.08;;;;;;;;;;5011764;28;20056;-63
2022/12/14 02:22:15;;;;;;;46.63;22.10;;;;;;;;;;5011865;28;20037;-63
2022/12/14 02:24:44;;;;;;;46.50;22.00;;;;;;;;;;5011893;28;20042;-63
2022/12/14 02:27:29;;;;;;;50.85;22.13;;;;;;;;;;5030167;28;20038;-63
2022/12/14 02:29:59;;;;;;;45.10;22.27;;;;;;;;;;5016934;28;20069;-63
2022/12/14 02:32:31;;;;;;;42.60;20.98;;;;;;;;;;5010375;28;20052;-63
2022/12/14 02:35:00;;;;;;;41.15;19.98;;;;;;;;;;5011389;28;20046;-63
2022/12/14 02:37:35;;;;;;;42.42;21.33;;;;;;;;;;5011369;28;20440;-63
2022/12/14 02:40:07;;;;;;;47.03;21.02;;;;;;;;;;5010371;28;20037;-63
2022/12/14 02:42:39;;;;;;;49.05;22.48;;;;;;;;;;5011429;28;20033;-63
2022/12/14 02:45:35;;;;;;;41.40;20.20;;;;;;;;;;5010150;28;20691;-63
2022/12/14 02:48:05;;;;;;;48.40;20.92;;;;;;;;;;5006866;28;20070;-63
2022/12/14 02:50:31;;;;;;;44.58;20.92;;;;;;;;;;5011030;28;20044;-63
2022/12/14 02:53:07;;;;;;;46.40;22.23;;;;;;;;;;5009839;28;20136;-63
2022/12/14 02:55:47;;;;;;;44.28;21.10;;;;;;;;;;5010207;28;20065;-63
2022/12/14 02:58:36;;;;;;;45.35;21.65;;;;;;;;;;5011044;28;20045;-63
2022/12/14 03:01:03;;;;;;;49.40;21.25;;;;;;;;;;5004398;28;20093;-63
2022/12/14 03:03:29;;;;;;;45.72;21.83;;;;;;;;;;5011042;28;20042;-63
2022/12/14 03:05:56;;;;;;;40.92;19.35;;;;;;;;;;5011055;28;20041;-63
2022/12/14 03:08:23;;;;;;;39.95;20.38;;;;;;;;;;5011063;28;20736;-63
2022/12/14 03:10:56;;;;;;;43.65;21.38;;;;;;;;;;5028367;28;20391;-63
2022/12/14 03:13:32;;;;;;;44.70;20.73;;;;;;;;;;5029934;28;20061;-63
2022/12/14 03:15:58;;;;;;;45.80;20.23;;;;;;;;;;5029594;28;20510;-63
2022/12/14 03:18:25;;;;;;;43.38;19.85;;;;;;;;;;5014230;28;20404;-64
2022/12/14 03:20:53;;;;;;;50.80;22.15;;;;;;;;;;5010246;28;20429;-63
2022/12/14 03:23:21;;;;;;;42.10;20.98;;;;;;;;;;5010206;28;20038;-63
2022/12/14 03:25:49;;;;;;;41.85;19.13;;;;;;;;;;5017919;28;20045;-63
2022/12/14 03:28:21;;;;;;;42.42;19.27;;;;;;;;;;5030322;28;20128;-63
2022/12/14 03:30:51;;;;;;;42.17;19.08;;;;;;;;;;5009539;28;20603;-63
2022/12/14 03:33:19;;;;;;;43.78;20.42;;;;;;;;;;5009237;28;20049;-63
2022/12/14 03:35:49;;;;;;;40.55;20.20;;;;;;;;;;5010649;28;20096;-63
2022/12/14 03:38:20;;;;;;;41.90;19.70;;;;;;;;;;5010771;28;20053;-63
2022/12/14 03:41:07;;;;;;;46.80;21.20;;;;;;;;;;5010375;28;20085;-63
2022/12/14 03:43:48;;;;;;;56.03;23.45;;;;;;;;;;5006424;28;20121;-63
2022/12/14 03:46:17;;;;;;;46.85;20.67;;;;;;;;;;5010864;28;20045;-63
2022/12/14 03:48:48;;;;;;;45.83;20.52;;;;;;;;;;5010491;28;20437;-63
2022/12/14 03:51:21;;;;;;;44.47;20.77;;;;;;;;;;5008957;28;20069;-63
2022/12/14 03:53:51;;;;;;;45.45;18.98;;;;;;;;;;5008918;28;20462;-63
2022/12/14 03:56:17;;;;;;;42.67;19.63;;;;;;;;;;5010651;28;20133;-63
2022/12/14 03:58:52;;;;;;;39.08;18.48;;;;;;;;;;5010375;28;20161;-63
2022/12/14 04:01:25;;;;;;;41.83;19.80;;;;;;;;;;5010581;28;20152;-63
2022/12/14 04:04:00;;;;;;;44.88;19.88;;;;;;;;;;5010765;28;20049;-63
2022/12/14 04:06:33;;;;;;;46.05;20.35;;;;;;;;;;5010415;28;20041;-63
2022/12/14 04:09:02;;;;;;;43.05;19.45;;;;;;;;;;5011496;28;20124;-63
2022/12/14 04:19:55;;;;;;;37.47;18.35;;;;;;;;;;5010019;28;20053;-63
2022/12/14 04:22:23;;;;;;;39.47;17.55;;;;;;;;;;5010350;28;20045;-63
2022/12/14 04:29:54;;;;;;;45.20;18.23;;;;;;;;;;4990582;28;20050;-63
2022/12/14 04:30:56;;;;;;;41.45;18.58;;;;;;;;;;5008995;28;20629;-63
2022/12/14 04:36:07;;;;;;;38.53;16.25;;;;;;;;;;5012813;28;20468;-63
2022/12/14 04:38:36;;;;;;;41.05;17.27;;;;;;;;;;5014124;28;20121;-63
2022/12/14 04:41:07;;;;;;;37.70;17.80;;;;;;;;;;5013650;28;20038;-63
2022/12/14 04:43:36;;;;;;;41.15;18.70;;;;;;;;;;5013820;28;20042;-63
2022/12/14 04:46:05;;;;;;;37.03;16.70;;;;;;;;;;5013685;28;20132;-63
2022/12/14 04:48:35;;;;;;;39.78;17.70;;;;;;;;;;5013820;28;20045;-63
2022/12/14 04:51:14;;;;;;;42.67;19.17;;;;;;;;;;5013394;28;20052;-63
2022/12/14 04:53:42;;;;;;;37.20;16.45;;;;;;;;;;5013599;28;20045;-63
2022/12/14 04:56:11;;;;;;;35.58;17.85;;;;;;;;;;5013060;28;20046;-63
2022/12/14 04:58:39;;;;;;;39.95;17.38;;;;;;;;;;5013689;28;20052;-63
2022/12/14 05:01:05;;;;;;;39.78;18.33;;;;;;;;;;5011914;28;20099;-63
2022/12/14 05:03:34;;;;;;;40.30;18.13;;;;;;;;;;5013387;28;20496;-63
2022/12/14 05:06:19;;;;;;;44.35;19.45;;;;;;;;;;5011819;28;20569;-63
2022/12/14 05:08:51;;;;;;;36.88;17.30;;;;;;;;;;5013878;28;20030;-63
2022/12/14 05:11:29;;;;;;;38.25;17.25;;;;;;;;;;5012738;28;20153;-63
2022/12/14 05:13:55;;;;;;;45.42;18.60;;;;;;;;;;5011479;28;20058;-63
2022/12/14 05:16:23;;;;;;;37.78;18.42;;;;;;;;;;5011605;28;20100;-63
2022/12/14 05:18:49;;;;;;;43.20;20.02;;;;;;;;;;5012551;28;20042;-63
2022/12/14 05:24:01;;;;;;;44.70;18.30;;;;;;;;;;5013129;28;20069;-63
2022/12/14 05:26:27;;;;;;;39.53;19.08;;;;;;;;;;5023953;28;20111;-63
2022/12/14 05:28:53;;;;;;;38.65;16.92;;;;;;;;;;5031991;28;20034;-63
2022/12/14 05:31:20;;;;;;;41.05;17.35;;;;;;;;;;5012764;28;20033;-63
2022/12/14 05:33:46;;;;;;;34.50;15.43;;;;;;;;;;5012340;28;20037;-63
2022/12/14 05:36:12;;;;;;;40.33;17.88;;;;;;;;;;5013039;28;20038;-63
2022/12/14 05:38:38;;;;;;;37.95;18.02;;;;;;;;;;5012868;28;20769;-63
2022/12/14 05:41:04;;;;;;;37.13;16.88;;;;;;;;;;5012248;28;20045;-63
2022/12/14 05:43:30;;;;;;;39.70;17.92;;;;;;;;;;5012836;28;20116;-63
2022/12/14 05:45:59;;;;;;;39.33;17.75;;;;;;;;;;5011884;28;20497;-63
2022/12/14 05:48:25;;;;;;;32.58;16.55;;;;;;;;;;5012428;28;20043;-63
2022/12/14 05:50:51;;;;;;;35.65;17.52;;;;;;;;;;5011100;28;20038;-63
2022/12/14 05:53:18;;;;;;;37.85;18.23;;;;;;;;;;4994721;28;20416;-63
2022/12/14 05:55:47;;;;;;;41.13;17.77;;;;;;;;;;5010690;28;20038;-63
2022/12/14 05:58:13;;;;;;;38.67;17.58;;;;;;;;;;5012284;28;20095;-63
2022/12/14 06:00:40;;;;;;;41.10;17.90;;;;;;;;;;5012070;28;20046;-63
2022/12/14 06:03:06;;;;;;;43.80;18.75;;;;;;;;;;5010737;28;20042;-63
2022/12/14 06:05:32;;;;;;;36.72;17.45;;;;;;;;;;5012186;28;20044;-62
2022/12/14 06:07:58;;;;;;;38.03;16.98;;;;;;;;;;5010636;28;20384;-63
2022/12/14 06:10:24;;;;;;;47.38;19.23;;;;;;;;;;5016403;28;20041;-62
2022/12/14 06:12:51;;;;;;;40.10;18.33;;;;;;;;;;5011672;28;20049;-62
2022/12/14 06:15:17;;;;;;;41.97;19.42;;;;;;;;;;5011799;28;20439;-62
2022/12/14 06:17:43;;;;;;;42.03;18.90;;;;;;;;;;5011383;28;20125;-63
2022/12/14 06:20:10;;;;;;;43.85;18.05;;;;;;;;;;5011975;28;20042;-63
2022/12/14 06:22:36;;;;;;;42.20;18.67;;;;;;;;;;5012387;28;20092;-62
2022/12/14 06:25:02;;;;;;;43.50;18.63;;;;;;;;;;5011139;28;20156;-62
2022/12/14 06:27:29;;;;;;;40.97;17.67;;;;;;;;;;5011418;28;20042;-62
2022/12/14 06:29:55;;;;;;;43.13;19.08;;;;;;;;;;5011587;28;20045;-63
2022/12/14 06:32:21;;;;;;;54.13;23.45;;;;;;;;;;5010755;28;20104;-62
2022/12/14 06:34:47;;;;;;;56.08;21.88;;;;;;;;;;5011440;28;20557;-62
2022/12/14 06:37:13;;;;;;;54.17;23.80;;;;;;;;;;5011595;28;20042;-63
2022/12/14 06:39:39;;;;;;;51.83;21.20;;;;;;;;;;5009774;28;20046;-63
2022/12/14 06:42:05;;;;;;;48.30;20.00;;;;;;;;;;5010874;28;20092;-63
2022/12/14 06:44:32;;;;;;;45.38;19.98;;;;;;;;;;5010923;28;20129;-63
2022/12/14 06:46:58;;;;;;;45.17;19.05;;;;;;;;;;5011217;28;20045;-63
2022/12/14 06:49:24;;;;;;;41.60;19.90;;;;;;;;;;5011113;28;20046;-63
2022/12/14 06:51:50;;;;;;;44.33;18.38;;;;;;;;;;5011545;28;20041;-64
2022/12/14 06:54:17;;;;;;;41.35;17.95;;;;;;;;;;5009960;28;20054;-64
2022/12/14 06:56:44;;;;;;;43.78;18.55;;;;;;;;;;5010542;28;20125;-64
2022/12/14 06:59:10;;;;;;;44.28;19.75;;;;;;;;;;5011152;28;20056;-64
2022/12/14 07:01:37;;;;;;;45.97;20.02;;;;;;;;;;5010986;28;20050;-64
2022/12/14 07:04:03;;;;;;;44.40;19.20;;;;;;;;;;5004366;28;20038;-63
2022/12/14 07:06:32;;;;;;;45.50;19.58;;;;;;;;;;5011041;28;20540;-63
2022/12/14 07:08:59;;;;;;;47.78;19.95;;;;;;;;;;5011643;28;20057;-63
2022/12/14 07:11:26;;;;;;;44.00;19.00;;;;;;;;;;5012169;28;20049;-63
2022/12/14 07:13:52;;;;;;;41.97;18.85;;;;;;;;;;5010275;28;20112;-63
2022/12/14 07:16:19;;;;;;;41.55;18.63;;;;;;;;;;5010929;28;20461;-63
2022/12/14 07:18:46;;;;;;;42.90;17.67;;;;;;;;;;5010456;28;20042;-64
2022/12/14 07:21:13;;;;;;;43.88;18.98;;;;;;;;;;5010392;28;20465;-64
2022/12/14 07:23:40;;;;;;;46.33;19.08;;;;;;;;;;4989673;28;20043;-64
2022/12/14 07:26:08;;;;;;;42.58;19.05;;;;;;;;;;5002642;28;20033;-64
2022/12/14 07:28:37;;;;;;;44.25;17.55;;;;;;;;;;5009108;28;20046;-64
2022/12/14 07:31:05;;;;;;;45.33;18.30;;;;;;;;;;5010424;28;20404;-65
2022/12/14 07:33:31;;;;;;;41.75;16.55;;;;;;;;;;5010088;28;20120;-64
2022/12/14 07:36:03;;;;;;;48.00;19.25;;;;;;;;;;5019710;28;20103;-62
2022/12/14 07:38:29;;;;;;;47.00;19.25;;;;;;;;;;5006462;28;20477;-62
2022/12/14 07:41:00;;;;;;;48.45;18.85;;;;;;;;;;5013948;28;20038;-62
2022/12/14 07:43:26;;;;;;;48.60;19.20;;;;;;;;;;5008830;28;20049;-62
2022/12/14 07:45:52;;;;;;;44.00;19.27;;;;;;;;;;5009891;28;20042;-63
2022/12/14 07:48:18;;;;;;;43.45;18.65;;;;;;;;;;5007371;28;20095;-63
2022/12/14 07:50:44;;;;;;;43.45;19.38;;;;;;;;;;5010245;28;20053;-65
2022/12/14 07:53:10;;;;;;;46.42;19.52;;;;;;;;;;5022087;28;20045;-59
2022/12/14 07:55:36;;;;;;;40.80;17.75;;;;;;;;;;4999495;28;20081;-59
2022/12/14 07:58:02;;;;;;;45.55;17.95;;;;;;;;;;5003045;28;20046;-59
2022/12/14 08:00:29;;;;;;;41.33;18.75;;;;;;;;;;4998963;28;20049;-59
2022/12/14 08:02:55;;;;;;;36.35;17.27;;;;;;;;;;4998841;28;20045;-60
2022/12/14 08:05:21;;;;;;;38.72;18.77;;;;;;;;;;5010227;28;20038;-59
2022/12/14 08:07:47;;;;;;;45.88;18.98;;;;;;;;;;5008380;28;20048;-58
2022/12/14 08:10:13;;;;;;;44.67;19.55;;;;;;;;;;5012790;28;20041;-57
2022/12/14 08:12:39;;;;;;;41.35;17.48;;;;;;;;;;5011157;28;20535;-57
2022/12/14 08:15:05;;;;;;;44.90;18.45;;;;;;;;;;5012422;28;20152;-58
2022/12/14 08:17:31;;;;;;;42.53;17.33;;;;;;;;;;5014061;28;20050;-58
2022/12/14 08:19:57;;;;;;;42.13;18.52;;;;;;;;;;5019172;28;20042;-58
2022/12/14 08:22:24;;;;;;;44.97;16.88;;;;;;;;;;5012689;28;20038;-57
2022/12/14 08:24:50;;;;;;;51.38;18.30;;;;;;;;;;5011520;28;20044;-57
2022/12/14 08:27:17;;;;;;;39.10;17.27;;;;;;;;;;5020851;28;20141;-56
2022/12/14 08:29:43;;;;;;;41.13;17.02;;;;;;;;;;5016172;28;20596;-57
2022/12/14 08:32:09;;;;;;;48.97;19.67;;;;;;;;;;5012104;28;21485;-64
2022/12/14 08:34:35;;;;;;;43.05;18.98;;;;;;;;;;5012643;28;20042;-63
2022/12/14 08:37:01;;;;;;;46.88;19.08;;;;;;;;;;5012385;28;20129;-63
2022/12/14 08:39:27;;;;;;;51.47;19.33;;;;;;;;;;5011625;28;20053;-64
2022/12/14 08:41:54;;;;;;;42.50;17.60;;;;;;;;;;5010976;28;20054;-63
2022/12/14 08:44:20;;;;;;;45.15;19.25;;;;;;;;;;5019808;28;20034;-64
2022/12/14 08:46:46;;;;;;;42.13;18.92;;;;;;;;;;5014355;28;20124;-64
2022/12/14 08:49:12;;;;;;;43.97;18.98;;;;;;;;;;5012139;28;20365;-64
2022/12/14 08:51:38;;;;;;;48.20;19.13;;;;;;;;;;5011714;28;20042;-64
2022/12/14 08:54:04;;;;;;;48.92;20.20;;;;;;;;;;5010625;28;20388;-64
2022/12/14 08:56:30;;;;;;;44.13;19.10;;;;;;;;;;5011953;28;20389;-64
2022/12/14 08:58:56;;;;;;;47.47;20.88;;;;;;;;;;5011303;28;20050;-64
2022/12/14 09:01:24;;;;;;;47.15;19.42;;;;;;;;;;5011286;28;20472;-64
2022/12/14 09:03:50;;;;;;;45.83;19.15;;;;;;;;;;5011165;28;20037;-64
2022/12/14 09:06:18;;;;;;;56.45;17.80;;;;;;;;;;5010214;28;20049;-64
2022/12/14 09:08:44;;;;;;;44.88;18.63;;;;;;;;;;5010389;28;20052;-64
2022/12/14 09:11:14;;;;;;;41.15;17.80;;;;;;;;;;5013452;28;20455;-64
2022/12/14 09:13:40;;;;;;;39.45;17.35;;;;;;;;;;5008847;28;20120;-64
2022/12/14 09:16:08;;;;;;;48.45;17.23;;;;;;;;;;5011083;28;20052;-64
2022/12/14 09:18:34;;;;;;;43.63;18.60;;;;;;;;;;5010377;28;20092;-64
2022/12/14 09:21:01;;;;;;;40.40;17.30;;;;;;;;;;5010171;28;20081;-64
2022/12/14 09:23:28;;;;;;;42.15;17.75;;;;;;;;;;5009897;28;20042;-65
2022/12/14 09:26:08;;;;;;;50.53;19.20;;;;;;;;;;5010153;28;20042;-64
2022/12/14 09:28:35;;;;;;;44.92;17.88;;;;;;;;;;5010333;28;20113;-64
2022/12/14 09:31:02;;;;;;;39.53;18.08;;;;;;;;;;5010796;28;20632;-64
2022/12/14 09:33:28;;;;;;;44.15;19.90;;;;;;;;;;5014421;28;20038;-64
2022/12/14 09:36:05;;;;;;;39.38;17.30;;;;;;;;;;5010802;28;20045;-64
2022/12/14 09:38:32;;;;;;;42.88;18.33;;;;;;;;;;5010277;28;20133;-64
2022/12/14 09:41:00;;;;;;;37.53;16.70;;;;;;;;;;5008895;28;20054;-64
2022/12/14 09:43:36;;;;;;;43.00;18.63;;;;;;;;;;5010054;28;20803;-64
2022/12/14 09:46:20;;;;;;;40.15;16.58;;;;;;;;;;5012042;28;20033;-65
2022/12/14 09:48:47;;;;;;;38.15;17.67;;;;;;;;;;5015708;28;20192;-65
2022/12/14 09:51:18;;;;;;;38.40;16.75;;;;;;;;;;5010728;28;20050;-65
2022/12/14 09:53:46;;;;;;;39.50;16.77;;;;;;;;;;5008270;28;20041;-64
2022/12/14 09:56:14;;;;;;;37.65;17.38;;;;;;;;;;5008260;28;20042;-64
2022/12/14 09:58:44;;;;;;;40.55;17.15;;;;;;;;;;5002072;28;20468;-65
2022/12/14 10:01:22;;;;;;;42.53;18.75;;;;;;;;;;5009281;28;20046;-64
2022/12/14 10:03:57;;;;;;;41.03;17.85;;;;;;;;;;5012078;28;20506;-65
2022/12/14 10:06:35;;;;;;;35.47;16.55;;;;;;;;;;5008988;28;20108;-64
2022/12/14 10:09:02;;;;;;;36.60;16.17;;;;;;;;;;5011794;28;20427;-64
2022/12/14 10:11:31;;;;;;;43.75;17.88;;;;;;;;;;5011562;28;20049;-65
2022/12/14 10:14:15;;;;;;;42.53;16.70;;;;;;;;;;5007988;28;20089;-64
2022/12/14 10:16:50;;;;;;;37.70;16.90;;;;;;;;;;5007873;28;20045;-64
2022/12/14 10:19:17;;;;;;;36.38;17.23;;;;;;;;;;5005369;28;20077;-64
2022/12/14 10:21:59;;;;;;;39.58;17.83;;;;;;;;;;5006969;28;20107;-65
2022/12/14 10:24:25;;;;;;;;;;;;;;;;;;5003098;28;20060;-65
2022/12/14 10:26:52;;;;;;;39.97;16.38;;;;;;;;;;5013776;28;20434;-64
2022/12/14 10:29:24;;;;;;;35.67;16.38;;;;;;;;;;5004387;28;20100;-64
2022/12/14 10:32:06;;;;;;;32.80;15.80;;;;;;;;;;5008284;28;20037;-64
2022/12/14 10:34:33;;;;;;;33.45;16.65;;;;;;;;;;5014249;28;20046;-64
2022/12/14 10:37:23;;;;;;;35.85;16.27;;;;;;;;;;5010258;28;20112;-63
2022/12/14 10:40:07;;;;;;;37.50;16.70;;;;;;;;;;5005628;28;20061;-64
2022/12/14 10:42:41;;;;;;;31.45;14.48;;;;;;;;;;5014353;28;20116;-63
2022/12/14 10:45:30;;;;;;;35.10;16.92;;;;;;;;;;5011350;28;20038;-64
2022/12/14 10:48:16;;;;;;;37.30;15.35;;;;;;;;;;5014578;28;20064;-64
2022/12/14 10:50:42;;;;;;;33.65;16.50;;;;;;;;;;4998562;28;20050;-64
2022/12/14 10:53:12;;;;;;;40.08;16.42;;;;;;;;;;5007918;28;20042;-63
2022/12/14 10:55:40;;;;;;;36.28;15.38;;;;;;;;;;5007770;28;20061;-63
2022/12/14 10:58:06;;;;;;;35.80;15.63;;;;;;;;;;5009914;28;20794;-63
2022/12/14 11:00:32;;;;;;;32.78;15.15;;;;;;;;;;5018095;28;20121;-64
2022/12/14 11:02:59;;;;;;;34.05;15.88;;;;;;;;;;5011362;28;20127;-65
2022/12/14 11:05:34;;;;;;;32.95;15.13;;;;;;;;;;5010219;28;20091;-65
2022/12/14 11:08:00;;;;;;;32.75;14.32;;;;;;;;;;5012782;28;20407;-65
2022/12/14 11:10:28;;;;;;;30.95;14.98;;;;;;;;;;5013355;28;20660;-65
2022/12/14 11:13:20;;;;;;;33.08;14.73;;;;;;;;;;5012233;28;20049;-62
2022/12/14 11:15:50;;;;;;;30.23;13.93;;;;;;;;;;5005525;28;20081;-61
2022/12/14 11:18:16;;;;;;;32.40;14.60;;;;;;;;;;5009383;28;20096;-62
2022/12/14 11:20:48;;;;;;;31.40;14.25;;;;;;;;;;5007285;28;20057;-62
2022/12/14 11:23:19;;;;;;;26.25;13.30;;;;;;;;;;5008184;28;20128;-61
2022/12/14 11:25:49;;;;;;;30.75;14.85;;;;;;;;;;5010070;28;20056;-61
2022/12/14 11:28:15;;;;;;;28.92;14.50;;;;;;;;;;5014465;28;20081;-62
2022/12/14 11:30:51;;;;;;;30.25;14.02;;;;;;;;;;5003853;28;20046;-61
2022/12/14 11:33:17;;;;;;;29.13;14.00;;;;;;;;;;5005674;28;20061;-62
2022/12/14 11:35:51;;;;;;;27.77;14.35;;;;;;;;;;5005988;28;20044;-61
2022/12/14 11:38:17;;;;;;;25.95;12.45;;;;;;;;;;5001887;28;20052;-61
2022/12/14 11:40:44;;;;;;;26.63;13.65;;;;;;;;;;4999816;28;20128;-62
2022/12/14 11:43:20;;;;;;;28.52;12.85;;;;;;;;;;4999118;28;20571;-62
2022/12/14 11:45:50;;;;;;;28.30;13.57;;;;;;;;;;4999568;28;20041;-61
2022/12/14 11:48:16;;;;;;;25.02;12.88;;;;;;;;;;5004139;28;20045;-62
2022/12/14 11:50:43;;;;;;;26.95;13.35;;;;;;;;;;5005254;28;20057;-61
2022/12/14 11:53:10;;;;;;;26.83;13.98;;;;;;;;;;5008545;28;20041;-61
2022/12/14 11:55:39;;;;;;;28.83;13.57;;;;;;;;;;5007346;28;20073;-62
2022/12/14 11:58:06;;;;;;;26.08;12.90;;;;;;;;;;5007384;28;20042;-61
2022/12/14 12:00:38;;;;;;;26.33;13.73;;;;;;;;;;5009733;28;20041;-61
2022/12/14 12:03:05;;;;;;;28.60;14.38;;;;;;;;;;5008144;28;20040;-60
2022/12/14 12:05:32;;;;;;;33.88;15.10;;;;;;;;;;5007684;28;20181;-61
2022/12/14 12:07:59;;;;;;;31.20;15.55;;;;;;;;;;5008298;28;20041;-61
2022/12/14 12:10:28;;;;;;;34.50;15.57;;;;;;;;;;5012139;28;20526;-61
2022/12/14 12:12:56;;;;;;;29.85;14.82;;;;;;;;;;5005934;28;20049;-61
2022/12/14 12:15:29;;;;;;;32.13;14.90;;;;;;;;;;5005813;28;20049;-62
2022/12/14 12:17:58;;;;;;;33.92;15.93;;;;;;;;;;5007202;28;20057;-61
2022/12/14 12:20:24;;;;;;;31.25;15.00;;;;;;;;;;5014636;28;20044;-62
2022/12/14 12:22:52;;;;;;;29.63;14.70;;;;;;;;;;5018559;28;20120;-61
2022/12/14 12:25:22;;;;;;;32.35;15.10;;;;;;;;;;5012693;28;20435;-61
2022/12/14 12:27:51;;;;;;;32.88;14.95;;;;;;;;;;5010975;28;20611;-61
2022/12/14 12:30:27;;;;;;;29.52;15.40;;;;;;;;;;5009238;28;20049;-61
2022/12/14 12:32:55;;;;;;;28.88;14.85;;;;;;;;;;5009074;28;20056;-61
2022/12/14 12:35:29;;;;;;;32.10;14.23;;;;;;;;;;5015450;28;20048;-62
2022/12/14 12:38:15;;;;;;;31.08;14.93;;;;;;;;;;5020388;28;20034;-61
2022/12/14 12:40:51;;;;;;;25.05;14.00;;;;;;;;;;5013982;28;20050;-62
2022/12/14 12:43:53;;;;;;;27.98;13.95;;;;;;;;;;5008448;28;20573;-61
2022/12/14 12:46:25;;;;;;;26.90;13.95;;;;;;;;;;5001164;28;20103;-62
2022/12/14 12:48:54;;;;;;;25.42;12.70;;;;;;;;;;5009400;28;20041;-61
2022/12/14 12:51:31;;;;;;;25.95;13.23;;;;;;;;;;5008452;28;20045;-62
2022/12/14 12:54:02;;;;;;;23.60;12.15;;;;;;;;;;5008197;28;20049;-61
2022/12/14 12:56:51;;;;;;;24.77;12.60;;;;;;;;;;5012917;28;20052;-60
2022/12/14 12:59:23;;;;;;;29.98;12.25;;;;;;;;;;5007683;28;20111;-58
2022/12/14 13:01:52;;;;;;;24.05;12.50;;;;;;;;;;5012584;28;20618;-59
2022/12/14 13:04:27;;;;;;;22.65;11.30;;;;;;;;;;5012760;28;20046;-60
2022/12/14 13:06:55;;;;;;;21.70;11.23;;;;;;;;;;5012555;28;20038;-60
2022/12/14 13:09:40;;;;;;;24.13;11.90;;;;;;;;;;5014657;28;20099;-60
2022/12/14 13:12:32;;;;;;;25.08;13.02;;;;;;;;;;5011106;28;20895;-60
2022/12/14 13:14:59;;;;;;;27.17;13.00;;;;;;;;;;5010148;28;20136;-60
2022/12/14 13:17:33;;;;;;;22.50;12.55;;;;;;;;;;5012472;28;20057;-59
2022/12/14 13:20:01;;;;;;;20.38;10.90;;;;;;;;;;5011598;28;20049;-60
2022/12/14 13:22:31;;;;;;;23.33;11.68;;;;;;;;;;5011924;28;20116;-62
2022/12/14 13:24:59;;;;;;;22.08;11.32;;;;;;;;;;5020204;28;20033;-60
2022/12/14 13:27:31;;;;;;;20.38;9.77;;;;;;;;;;5011722;28;20699;-60
2022/12/14 13:29:57;;;;;;;17.90;10.07;;;;;;;;;;5012112;28;20038;-60
2022/12/14 13:32:29;;;;;;;22.25;10.82;;;;;;;;;;5011684;28;20129;-60
2022/12/14 13:35:00;;;;;;;19.65;10.40;;;;;;;;;;5011188;28;20037;-60
2022/12/14 13:37:26;;;;;;;22.35;10.88;;;;;;;;;;5011918;28;20074;-60
2022/12/14 13:40:02;;;;;;;19.23;10.55;;;;;;;;;;5011154;28;20038;-59
2022/12/14 13:42:53;;;;;;;20.83;10.45;;;;;;;;;;5014823;28;20046;-60
2022/12/14 13:45:21;;;;;;;19.77;10.38;;;;;;;;;;5030283;28;20025;-60
2022/12/14 13:47:50;;;;;;;18.33;10.73;;;;;;;;;;5028732;28;20041;-61
2022/12/14 13:50:28;;;;;;;18.75;10.45;;;;;;;;;;5010398;28;20104;-61
2022/12/14 13:52:58;;;;;;;19.88;10.73;;;;;;;;;;5011194;28;20050;-61
2022/12/14 13:55:30;;;;;;;18.33;10.15;;;;;;;;;;5011127;28;20041;-61
2022/12/14 13:58:05;;;;;;;24.15;10.80;;;;;;;;;;5011240;28;20050;-61
2022/12/14 14:00:44;;;;;;;18.60;10.38;;;;;;;;;;5010037;28;20042;-61
2022/12/14 14:03:28;;;;;;;18.23;9.30;;;;;;;;;;5010520;28;20038;-62
2022/12/14 14:06:21;;;;;;;18.67;9.38;;;;;;;;;;5011006;28;20132;-62
2022/12/14 14:08:51;;;;;;;20.35;10.23;;;;;;;;;;5003472;28;20079;-62
2022/12/14 14:11:20;;;;;;;16.60;10.15;;;;;;;;;;5023112;28;20109;-62
2022/12/14 14:13:47;;;;;;;18.13;10.13;;;;;;;;;;5010331;28;20524;-62
2022/12/14 14:16:31;;;;;;;22.60;11.07;;;;;;;;;;5018050;28;20455;-63
2022/12/14 14:19:01;;;;;;;23.05;12.10;;;;;;;;;;5009645;28;20057;-62
2022/12/14 14:21:30;;;;;;;22.05;11.05;;;;;;;;;;5012307;28;20049;-62
2022/12/14 14:23:58;;;;;;;25.13;10.95;;;;;;;;;;5009034;28;20077;-63
2022/12/14 14:26:25;;;;;;;22.25;11.70;;;;;;;;;;5022820;28;20069;-63
2022/12/14 14:29:09;;;;;;;22.65;11.65;;;;;;;;;;5011310;28;20472;-63
2022/12/14 14:31:52;;;;;;;23.83;11.65;;;;;;;;;;5010604;28;20084;-63
2022/12/14 14:34:23;;;;;;;26.55;11.68;;;;;;;;;;5008926;28;20057;-63
2022/12/14 14:36:50;;;;;;;23.00;11.75;;;;;;;;;;5010780;28;20377;-63
2022/12/14 14:39:28;;;;;;;24.15;12.13;;;;;;;;;;5011084;28;20050;-62
2022/12/14 14:41:54;;;;;;;21.05;11.25;;;;;;;;;;5009255;28;20042;-62
2022/12/14 14:44:23;;;;;;;22.98;12.07;;;;;;;;;;5010324;28;20121;-63
2022/12/14 14:46:49;;;;;;;23.52;11.88;;;;;;;;;;5010728;28;20037;-65
2022/12/14 14:49:22;;;;;;;27.67;12.23;;;;;;;;;;5010754;28;20498;-66